ADDS METAR Data INFO
IDs: Format: Raw Decoded Include TAF

Data at: 2134 UTC 26 May 2018

Region: TOP
KATL 262052Z COR 16006KT 10SM SCT041TCU BKN250 29/19 A2989 RMK AO2 SLP111 TCU ALQDS T02940194 56024

KBOS 262054Z 26005KT 10SM FEW070 FEW130 BKN190 OVC280 31/13 A2976 RMK AO2 SLP076 T03110133 53003

KBWI 262054Z 27004KT 10SM VCTS SCT055CB BKN120 BKN180 24/22 A2982 RMK AO2 LTG DSNT NW RAB14E48 TSE54 SLP097 TS NW P0000 60000 T02440222 55000

KCLE 262126Z 00000KT 10SM TS FEW060CB BKN120 OVC200 27/19 A2982 RMK AO2 LTG DSNT S-W TSB25 FRQ LTGICCC S-W TS S-W MOV E T02670189 $

KCLT 262052Z 20010KT 10SM SCT030 BKN050 BKN250 28/20 A2990 RMK RAB30E35 SLP121 P0000 60000 T02800200 57004

KCVG 262052Z 00000KT 10SM -RA FEW035 SCT050 BKN110 23/22 A2981 RMK AO2 PK WND 28039/2007 WSHFT 1955 LTG DSNT NE AND E RAB07 TSB1959E40 SLP086 P0038 60038 T02280217 56003

KDCA 262052Z 18004KT 10SM FEW070 OVC180 29/21 A2983 RMK AO2 SLP101 T02890211 55005

KDEN 262129Z 10010G19KT 10SM FEW120 BKN240 33/M04 A2982 RMK AO2 WSHFT 2112 T03331044

KDFW 262053Z 13009KT 10SM FEW060 FEW120 SCT300 35/19 A2975 RMK AO2 SLP064 T03500194 58023

KDTW 262053Z 17008KT 8SM FEW040 SCT065 BKN160 25/19 A2979 RMK AO2 RAE02 SLP084 P0000 60000 T02500189 56008

KEWR 262051Z 26010KT 10SM SCT060 SCT130 BKN250 32/18 A2977 RMK AO2 SLP081 TCU DSNT W T03220178 55005

KFLL 262053Z 11013KT 9SM -RA FEW017 BKN040 OVC060 22/22 A2988 RMK AO2 SLP116 P0002 60051 T02220217 58009

KIAD 262117Z 22003KT 10SM -TSRA SCT039CB BKN065 BKN100 27/23 A2983 RMK AO2 RAB04 TSB17 OCNL LTGCG OHD-E TS OHD-E MOV NE P0000 T02670233

KIAH 262053Z 28004KT 10SM BKN050 33/22 A2978 RMK AO2 SLP081 T03330222 56029

KJFK 262051Z 18013KT 10SM FEW055 SCT100 SCT150 BKN250 26/21 A2980 RMK AO2 SLP090 T02560206 55005

KLAS 262056Z 16010KT 10SM FEW130 SCT200 26/00 A2978 RMK AO2 SLP064 T02560000 56016

KLAX 262053Z 25012KT 10SM SCT028 20/11 A3001 RMK AO2 SLP161 T02000111 56004

KLGA 262051Z 18010KT 10SM FEW065 SCT090 BKN130 BKN250 31/19 A2977 RMK AO2 SLP081 TCU DSNT SE T03060194 55002

KMCO 262053Z 12012KT 10SM SCT028 BKN044 OVC160 27/21 A2990 RMK AO2 RAB09E16 SLP123 P0000 60000 T02720211 56013

KMDW 262053Z VRB03KT 10SM SCT065 SCT250 31/17 A2975 RMK AO2 SLP062 T03060167 58009

KMEM 262054Z 18008KT 10SM SCT035 BKN250 30/22 A2982 RMK AO2 LTG DSNT N SLP093 CB DSNT N T03000217 56021 $

KMIA 262100Z COR 10012KT 6SM -RA BR BKN014 OVC021 23/22 A2987 RMK AO2 P0000 T02280222 $

KMSP 262053Z 28008KT 10SM FEW110 34/12 A2969 RMK AO2 SLP047 T03390122 56007 $

KORD 262051Z 28007KT 240V300 10SM SCT060 SCT250 32/15 A2974 RMK AO2 SLP066 CB DSNT SE T03170150 58009

KPDX 262053Z VRB04KT 10SM FEW040 BKN065 18/08 A3019 RMK AO2 SLP223 T01780078 53000

KPHL 262103Z 26005KT 10SM TS FEW035CB FEW070 SCT110 BKN250 30/21 A2979 RMK AO2 LTG DSNT W AND NW TSE2055B03 OCNL LTGIC VC W-VC NW TS VC W-VC NW MOV E T03000206 $

KPHX 262051Z 22014G21KT 190V250 10SM FEW180 BKN250 34/M01 A2976 RMK AO2 SLP058 T03441011 58021

KPIT 262051Z 02003KT 10SM FEW038 SCT065 BKN140 25/18 A2984 RMK AO2 LTG DSNT SW RAE13 SLP104 VCSH S-SW P0000 60000 T02500178 58011

KSAN 262051Z 26010KT 10SM FEW026 BKN032 19/12 A3005 RMK AO2 SLP176 T01890117 58006

KSEA 262053Z VRB04KT 10SM SCT036 BKN050 BKN180 18/07 A3018 RMK AO2 SLP224 T01830067 51003

KSFO 262056Z 27009KT 10SM FEW016 BKN021 OVC025 17/09 A3008 RMK AO2 SLP186 T01670094 56001

KSLC 262054Z 32013KT 10SM FEW150 FEW250 28/M04 A2975 RMK A02 SLP018 T02831039 56020

KSTL 262051Z 22004KT 10SM FEW045 SCT250 33/20 A2979 RMK AO2 SLP075 T03280200 56017

KTPA 262053Z 00000KT 10SM -RA FEW030 SCT070 OVC110 24/21 A2988 RMK AO2 SLP119 P0003 60047 T02390211 58017